sensor_id;sensor_type;location;lat;lon;timestamp;P1;durP1;ratioP1;P2;durP2;ratioP2
9445;SDS011;4761;49.490;10.908;2023-02-08T00:00:58;5.77;;;5.10;;
9445;SDS011;4761;49.490;10.908;2023-02-08T00:03:24;5.97;;;5.10;;
9445;SDS011;4761;49.490;10.908;2023-02-08T00:05:51;5.63;;;5.10;;
9445;SDS011;4761;49.490;10.908;2023-02-08T00:08:17;5.83;;;4.80;;
9445;SDS011;4761;49.490;10.908;2023-02-08T00:10:42;5.50;;;4.97;;
9445;SDS011;4761;49.490;10.908;2023-02-08T00:13:08;5.87;;;5.17;;
9445;SDS011;4761;49.490;10.908;2023-02-08T00:15:33;5.57;;;4.97;;
9445;SDS011;4761;49.490;10.908;2023-02-08T00:17:59;5.50;;;5.00;;
9445;SDS011;4761;49.490;10.908;2023-02-08T00:20:24;5.63;;;4.67;;
9445;SDS011;4761;49.490;10.908;2023-02-08T00:22:50;5.87;;;5.20;;
9445;SDS011;4761;49.490;10.908;2023-02-08T00:25:16;6.57;;;5.40;;
9445;SDS011;4761;49.490;10.908;2023-02-08T00:27:41;6.27;;;5.17;;
9445;SDS011;4761;49.490;10.908;2023-02-08T00:30:07;5.83;;;5.10;;
9445;SDS011;4761;49.490;10.908;2023-02-08T00:32:33;6.30;;;5.17;;
9445;SDS011;4761;49.490;10.908;2023-02-08T00:34:58;7.47;;;5.50;;
9445;SDS011;4761;49.490;10.908;2023-02-08T00:37:24;5.53;;;4.97;;
9445;SDS011;4761;49.490;10.908;2023-02-08T00:39:49;5.00;;;4.50;;
9445;SDS011;4761;49.490;10.908;2023-02-08T00:42:15;5.43;;;4.93;;
9445;SDS011;4761;49.490;10.908;2023-02-08T00:44:40;6.27;;;5.50;;
9445;SDS011;4761;49.490;10.908;2023-02-08T00:47:06;5.57;;;4.43;;
9445;SDS011;4761;49.490;10.908;2023-02-08T00:49:32;5.43;;;4.80;;
9445;SDS011;4761;49.490;10.908;2023-02-08T00:51:57;5.80;;;4.80;;
9445;SDS011;4761;49.490;10.908;2023-02-08T00:54:23;5.37;;;4.87;;
9445;SDS011;4761;49.490;10.908;2023-02-08T00:56:48;5.57;;;4.73;;
9445;SDS011;4761;49.490;10.908;2023-02-08T00:59:14;6.30;;;5.10;;
9445;SDS011;4761;49.490;10.908;2023-02-08T01:01:39;5.60;;;4.63;;
9445;SDS011;4761;49.490;10.908;2023-02-08T01:04:05;5.30;;;4.50;;
9445;SDS011;4761;49.490;10.908;2023-02-08T01:06:31;5.67;;;4.87;;
9445;SDS011;4761;49.490;10.908;2023-02-08T01:08:57;5.77;;;4.87;;
9445;SDS011;4761;49.490;10.908;2023-02-08T01:11:22;5.83;;;5.00;;
9445;SDS011;4761;49.490;10.908;2023-02-08T01:13:50;5.13;;;4.60;;
9445;SDS011;4761;49.490;10.908;2023-02-08T01:16:19;5.53;;;4.80;;
9445;SDS011;4761;49.490;10.908;2023-02-08T01:18:48;5.00;;;4.50;;
9445;SDS011;4761;49.490;10.908;2023-02-08T01:21:16;5.70;;;4.90;;
9445;SDS011;4761;49.490;10.908;2023-02-08T01:23:43;5.17;;;4.40;;
9445;SDS011;4761;49.490;10.908;2023-02-08T01:26:13;4.80;;;4.30;;
9445;SDS011;4761;49.490;10.908;2023-02-08T01:28:40;5.17;;;4.63;;
9445;SDS011;4761;49.490;10.908;2023-02-08T01:31:06;4.77;;;4.30;;
9445;SDS011;4761;49.490;10.908;2023-02-08T01:33:34;6.57;;;4.77;;
9445;SDS011;4761;49.490;10.908;2023-02-08T01:35:59;5.27;;;4.70;;
9445;SDS011;4761;49.490;10.908;2023-02-08T01:38:25;5.23;;;4.70;;
9445;SDS011;4761;49.490;10.908;2023-02-08T01:40:51;5.60;;;4.77;;
9445;SDS011;4761;49.490;10.908;2023-02-08T01:43:30;5.30;;;4.80;;
9445;SDS011;4761;49.490;10.908;2023-02-08T01:46:16;5.43;;;4.40;;
9445;SDS011;4761;49.490;10.908;2023-02-08T01:48:41;4.83;;;4.27;;
9445;SDS011;4761;49.490;10.908;2023-02-08T01:51:08;5.10;;;4.53;;
9445;SDS011;4761;49.490;10.908;2023-02-08T01:53:37;4.60;;;4.10;;
9445;SDS011;4761;49.490;10.908;2023-02-08T01:56:05;6.17;;;4.97;;
9445;SDS011;4761;49.490;10.908;2023-02-08T01:58:37;5.30;;;4.60;;
9445;SDS011;4761;49.490;10.908;2023-02-08T02:01:07;5.03;;;4.30;;
9445;SDS011;4761;49.490;10.908;2023-02-08T02:03:34;4.77;;;4.27;;
9445;SDS011;4761;49.490;10.908;2023-02-08T02:06:00;4.77;;;4.27;;
9445;SDS011;4761;49.490;10.908;2023-02-08T02:08:30;5.10;;;4.57;;
9445;SDS011;4761;49.490;10.908;2023-02-08T02:10:56;5.17;;;4.60;;
9445;SDS011;4761;49.490;10.908;2023-02-08T02:13:23;4.97;;;4.40;;
9445;SDS011;4761;49.490;10.908;2023-02-08T02:15:50;5.13;;;4.33;;
9445;SDS011;4761;49.490;10.908;2023-02-08T02:18:18;4.73;;;4.33;;
9445;SDS011;4761;49.490;10.908;2023-02-08T02:23:42;5.40;;;4.60;;
9445;SDS011;4761;49.490;10.908;2023-02-08T02:32:12;5.23;;;4.70;;
9445;SDS011;4761;49.490;10.908;2023-02-08T02:44:21;5.23;;;4.67;;
9445;SDS011;4761;49.490;10.908;2023-02-08T02:47:08;5.03;;;4.53;;
9445;SDS011;4761;49.490;10.908;2023-02-08T02:49:45;4.63;;;4.13;;
9445;SDS011;4761;49.490;10.908;2023-02-08T02:52:25;4.83;;;4.33;;
9445;SDS011;4761;49.490;10.908;2023-02-08T02:54:58;4.67;;;4.07;;
9445;SDS011;4761;49.490;10.908;2023-02-08T02:57:38;5.43;;;4.70;;
9445;SDS011;4761;49.490;10.908;2023-02-08T03:00:08;5.73;;;4.93;;
9445;SDS011;4761;49.490;10.908;2023-02-08T03:02:36;4.70;;;4.20;;
9445;SDS011;4761;49.490;10.908;2023-02-08T03:05:02;5.07;;;4.50;;
9445;SDS011;4761;49.490;10.908;2023-02-08T03:07:41;5.90;;;4.27;;
9445;SDS011;4761;49.490;10.908;2023-02-08T03:10:28;5.07;;;4.20;;
9445;SDS011;4761;49.490;10.908;2023-02-08T03:15:59;5.33;;;4.83;;
9445;SDS011;4761;49.490;10.908;2023-02-08T03:21:19;5.13;;;4.30;;
9445;SDS011;4761;49.490;10.908;2023-02-08T03:26:54;5.77;;;4.87;;
9445;SDS011;4761;49.490;10.908;2023-02-08T03:30:07;4.50;;;4.10;;
9445;SDS011;4761;49.490;10.908;2023-02-08T03:32:25;6.13;;;4.80;;
9445;SDS011;4761;49.490;10.908;2023-02-08T03:35:16;4.97;;;4.47;;
9445;SDS011;4761;49.490;10.908;2023-02-08T03:37:49;5.43;;;4.70;;
9445;SDS011;4761;49.490;10.908;2023-02-08T03:40:23;5.30;;;4.60;;
9445;SDS011;4761;49.490;10.908;2023-02-08T03:42:53;4.87;;;4.37;;
9445;SDS011;4761;49.490;10.908;2023-02-08T03:45:24;6.27;;;5.37;;
9445;SDS011;4761;49.490;10.908;2023-02-08T03:47:55;5.73;;;4.83;;
9445;SDS011;4761;49.490;10.908;2023-02-08T03:50:23;5.07;;;4.23;;
9445;SDS011;4761;49.490;10.908;2023-02-08T03:52:49;4.87;;;4.30;;
9445;SDS011;4761;49.490;10.908;2023-02-08T03:55:17;5.77;;;4.67;;
9445;SDS011;4761;49.490;10.908;2023-02-08T03:57:47;6.33;;;5.07;;
9445;SDS011;4761;49.490;10.908;2023-02-08T04:00:17;5.70;;;4.63;;
9445;SDS011;4761;49.490;10.908;2023-02-08T04:02:53;5.03;;;4.53;;
9445;SDS011;4761;49.490;10.908;2023-02-08T04:05:22;5.30;;;4.30;;
9445;SDS011;4761;49.490;10.908;2023-02-08T04:07:49;6.27;;;4.57;;
9445;SDS011;4761;49.490;10.908;2023-02-08T04:10:15;5.63;;;4.60;;
9445;SDS011;4761;49.490;10.908;2023-02-08T04:12:41;5.50;;;4.40;;
9445;SDS011;4761;49.490;10.908;2023-02-08T04:15:07;4.20;;;3.80;;
9445;SDS011;4761;49.490;10.908;2023-02-08T04:17:33;5.73;;;4.73;;
9445;SDS011;4761;49.490;10.908;2023-02-08T04:19:59;5.50;;;4.77;;
9445;SDS011;4761;49.490;10.908;2023-02-08T04:22:24;5.60;;;4.90;;
9445;SDS011;4761;49.490;10.908;2023-02-08T04:24:50;5.07;;;4.40;;
9445;SDS011;4761;49.490;10.908;2023-02-08T04:27:15;5.50;;;4.80;;
9445;SDS011;4761;49.490;10.908;2023-02-08T04:29:41;5.10;;;4.60;;
9445;SDS011;4761;49.490;10.908;2023-02-08T04:32:07;4.80;;;4.30;;
9445;SDS011;4761;49.490;10.908;2023-02-08T04:34:35;5.70;;;4.90;;
9445;SDS011;4761;49.490;10.908;2023-02-08T04:37:02;6.00;;;4.77;;
9445;SDS011;4761;49.490;10.908;2023-02-08T04:39:28;4.93;;;4.40;;
9445;SDS011;4761;49.490;10.908;2023-02-08T04:41:53;5.10;;;4.60;;
9445;SDS011;4761;49.490;10.908;2023-02-08T04:44:19;5.60;;;4.13;;
9445;SDS011;4761;49.490;10.908;2023-02-08T04:46:44;5.07;;;4.57;;
9445;SDS011;4761;49.490;10.908;2023-02-08T04:49:10;5.10;;;4.57;;
9445;SDS011;4761;49.490;10.908;2023-02-08T04:51:36;5.87;;;4.87;;
9445;SDS011;4761;49.490;10.908;2023-02-08T04:54:01;5.20;;;4.50;;
9445;SDS011;4761;49.490;10.908;2023-02-08T04:56:27;7.53;;;6.73;;
9445;SDS011;4761;49.490;10.908;2023-02-08T04:58:53;7.17;;;6.30;;
9445;SDS011;4761;49.490;10.908;2023-02-08T05:01:18;6.60;;;5.83;;
9445;SDS011;4761;49.490;10.908;2023-02-08T05:03:44;7.37;;;6.40;;
9445;SDS011;4761;49.490;10.908;2023-02-08T05:06:09;7.80;;;6.40;;
9445;SDS011;4761;49.490;10.908;2023-02-08T05:08:35;7.77;;;6.60;;
9445;SDS011;4761;49.490;10.908;2023-02-08T05:11:00;7.53;;;6.50;;
9445;SDS011;4761;49.490;10.908;2023-02-08T05:13:26;7.83;;;6.67;;
9445;SDS011;4761;49.490;10.908;2023-02-08T05:15:52;7.37;;;6.50;;
9445;SDS011;4761;49.490;10.908;2023-02-08T05:18:17;7.77;;;6.60;;
9445;SDS011;4761;49.490;10.908;2023-02-08T05:20:43;7.00;;;6.13;;
9445;SDS011;4761;49.490;10.908;2023-02-08T05:23:09;7.97;;;6.70;;
9445;SDS011;4761;49.490;10.908;2023-02-08T05:25:36;7.10;;;6.03;;
9445;SDS011;4761;49.490;10.908;2023-02-08T05:28:02;8.43;;;6.43;;
9445;SDS011;4761;49.490;10.908;2023-02-08T05:30:27;7.40;;;6.47;;
9445;SDS011;4761;49.490;10.908;2023-02-08T05:32:53;9.30;;;6.90;;
9445;SDS011;4761;49.490;10.908;2023-02-08T05:35:18;7.87;;;6.83;;
9445;SDS011;4761;49.490;10.908;2023-02-08T05:37:44;8.30;;;6.63;;
9445;SDS011;4761;49.490;10.908;2023-02-08T05:40:10;6.53;;;5.77;;
9445;SDS011;4761;49.490;10.908;2023-02-08T05:42:37;7.50;;;6.40;;
9445;SDS011;4761;49.490;10.908;2023-02-08T05:45:03;7.70;;;6.60;;
9445;SDS011;4761;49.490;10.908;2023-02-08T05:47:29;8.00;;;6.70;;
9445;SDS011;4761;49.490;10.908;2023-02-08T05:49:54;7.83;;;6.23;;
9445;SDS011;4761;49.490;10.908;2023-02-08T05:52:20;9.40;;;6.87;;
9445;SDS011;4761;49.490;10.908;2023-02-08T05:54:45;7.00;;;6.30;;
9445;SDS011;4761;49.490;10.908;2023-02-08T05:57:11;8.13;;;6.67;;
9445;SDS011;4761;49.490;10.908;2023-02-08T05:59:36;7.40;;;6.57;;
9445;SDS011;4761;49.490;10.908;2023-02-08T06:02:02;7.53;;;6.47;;
9445;SDS011;4761;49.490;10.908;2023-02-08T06:04:27;8.53;;;6.47;;
9445;SDS011;4761;49.490;10.908;2023-02-08T06:06:53;9.10;;;7.07;;
9445;SDS011;4761;49.490;10.908;2023-02-08T06:09:18;8.70;;;7.07;;
9445;SDS011;4761;49.490;10.908;2023-02-08T06:11:44;7.37;;;6.53;;
9445;SDS011;4761;49.490;10.908;2023-02-08T06:14:09;7.50;;;6.70;;
9445;SDS011;4761;49.490;10.908;2023-02-08T06:16:35;8.30;;;6.93;;
9445;SDS011;4761;49.490;10.908;2023-02-08T06:19:00;7.63;;;6.83;;
9445;SDS011;4761;49.490;10.908;2023-02-08T06:21:26;7.77;;;6.57;;
9445;SDS011;4761;49.490;10.908;2023-02-08T06:23:52;7.50;;;6.37;;
9445;SDS011;4761;49.490;10.908;2023-02-08T06:26:18;8.10;;;7.17;;
9445;SDS011;4761;49.490;10.908;2023-02-08T06:28:43;8.07;;;6.87;;
9445;SDS011;4761;49.490;10.908;2023-02-08T06:31:09;7.40;;;6.60;;
9445;SDS011;4761;49.490;10.908;2023-02-08T06:33:34;9.53;;;6.80;;
9445;SDS011;4761;49.490;10.908;2023-02-08T06:36:00;8.87;;;7.20;;
9445;SDS011;4761;49.490;10.908;2023-02-08T06:38:25;8.07;;;7.00;;
9445;SDS011;4761;49.490;10.908;2023-02-08T06:40:51;7.73;;;6.50;;
9445;SDS011;4761;49.490;10.908;2023-02-08T06:43:16;8.77;;;7.17;;
9445;SDS011;4761;49.490;10.908;2023-02-08T06:45:45;8.00;;;6.90;;
9445;SDS011;4761;49.490;10.908;2023-02-08T06:48:11;7.50;;;6.63;;
9445;SDS011;4761;49.490;10.908;2023-02-08T06:50:37;8.17;;;6.87;;
9445;SDS011;4761;49.490;10.908;2023-02-08T06:53:03;9.13;;;6.53;;
9445;SDS011;4761;49.490;10.908;2023-02-08T06:55:29;8.00;;;6.73;;
9445;SDS011;4761;49.490;10.908;2023-02-08T06:57:54;8.77;;;7.23;;
9445;SDS011;4761;49.490;10.908;2023-02-08T07:00:20;7.80;;;6.83;;
9445;SDS011;4761;49.490;10.908;2023-02-08T07:02:46;8.10;;;6.63;;
9445;SDS011;4761;49.490;10.908;2023-02-08T07:05:12;8.17;;;6.33;;
9445;SDS011;4761;49.490;10.908;2023-02-08T07:07:38;15.80;;;13.37;;
9445;SDS011;4761;49.490;10.908;2023-02-08T07:10:05;14.80;;;12.60;;
9445;SDS011;4761;49.490;10.908;2023-02-08T07:12:34;15.33;;;13.00;;
9445;SDS011;4761;49.490;10.908;2023-02-08T07:15:00;16.97;;;14.37;;
9445;SDS011;4761;49.490;10.908;2023-02-08T07:17:26;20.47;;;18.23;;
9445;SDS011;4761;49.490;10.908;2023-02-08T07:19:51;21.50;;;19.13;;
9445;SDS011;4761;49.490;10.908;2023-02-08T07:22:17;34.53;;;31.10;;
9445;SDS011;4761;49.490;10.908;2023-02-08T07:24:43;23.73;;;21.13;;
9445;SDS011;4761;49.490;10.908;2023-02-08T07:27:09;17.90;;;14.90;;
9445;SDS011;4761;49.490;10.908;2023-02-08T07:29:36;17.87;;;15.40;;
9445;SDS011;4761;49.490;10.908;2023-02-08T07:32:02;26.57;;;23.70;;
9445;SDS011;4761;49.490;10.908;2023-02-08T07:34:31;50.33;;;41.50;;
9445;SDS011;4761;49.490;10.908;2023-02-08T07:36:58;66.23;;;50.83;;
9445;SDS011;4761;49.490;10.908;2023-02-08T07:39:24;95.73;;;68.97;;
9445;SDS011;4761;49.490;10.908;2023-02-08T07:41:49;91.73;;;63.07;;
9445;SDS011;4761;49.490;10.908;2023-02-08T07:44:15;77.70;;;55.57;;
9445;SDS011;4761;49.490;10.908;2023-02-08T07:46:41;75.77;;;54.30;;
9445;SDS011;4761;49.490;10.908;2023-02-08T07:49:06;63.10;;;48.40;;
9445;SDS011;4761;49.490;10.908;2023-02-08T07:51:32;19.53;;;13.33;;
9445;SDS011;4761;49.490;10.908;2023-02-08T07:53:58;14.97;;;11.23;;
9445;SDS011;4761;49.490;10.908;2023-02-08T07:56:24;14.17;;;11.87;;
9445;SDS011;4761;49.490;10.908;2023-02-08T07:58:49;14.43;;;11.10;;
9445;SDS011;4761;49.490;10.908;2023-02-08T08:01:15;13.00;;;10.60;;
9445;SDS011;4761;49.490;10.908;2023-02-08T08:03:40;13.57;;;11.20;;
9445;SDS011;4761;49.490;10.908;2023-02-08T08:06:06;14.17;;;10.97;;
9445;SDS011;4761;49.490;10.908;2023-02-08T08:08:31;14.30;;;11.30;;
9445;SDS011;4761;49.490;10.908;2023-02-08T08:10:57;13.07;;;10.57;;
9445;SDS011;4761;49.490;10.908;2023-02-08T08:13:22;13.33;;;10.83;;
9445;SDS011;4761;49.490;10.908;2023-02-08T08:15:48;12.87;;;10.90;;
9445;SDS011;4761;49.490;10.908;2023-02-08T08:18:13;12.97;;;10.10;;
9445;SDS011;4761;49.490;10.908;2023-02-08T08:20:39;11.63;;;9.93;;
9445;SDS011;4761;49.490;10.908;2023-02-08T08:23:05;11.97;;;9.70;;
9445;SDS011;4761;49.490;10.908;2023-02-08T08:25:30;12.93;;;10.87;;
9445;SDS011;4761;49.490;10.908;2023-02-08T08:27:56;13.27;;;10.90;;
9445;SDS011;4761;49.490;10.908;2023-02-08T08:30:22;11.63;;;10.20;;
9445;SDS011;4761;49.490;10.908;2023-02-08T08:32:48;11.97;;;10.23;;
9445;SDS011;4761;49.490;10.908;2023-02-08T08:35:13;13.43;;;10.67;;
9445;SDS011;4761;49.490;10.908;2023-02-08T08:37:39;12.70;;;10.13;;
9445;SDS011;4761;49.490;10.908;2023-02-08T08:40:05;12.73;;;10.17;;
9445;SDS011;4761;49.490;10.908;2023-02-08T08:42:32;11.40;;;9.37;;
9445;SDS011;4761;49.490;10.908;2023-02-08T08:44:58;13.97;;;10.33;;
9445;SDS011;4761;49.490;10.908;2023-02-08T08:47:24;13.00;;;9.73;;
9445;SDS011;4761;49.490;10.908;2023-02-08T08:49:49;10.67;;;9.57;;
9445;SDS011;4761;49.490;10.908;2023-02-08T08:52:15;11.20;;;9.10;;
9445;SDS011;4761;49.490;10.908;2023-02-08T08:54:40;12.07;;;9.80;;
9445;SDS011;4761;49.490;10.908;2023-02-08T08:57:06;11.87;;;9.67;;
9445;SDS011;4761;49.490;10.908;2023-02-08T08:59:31;11.60;;;9.67;;
9445;SDS011;4761;49.490;10.908;2023-02-08T09:01:57;10.97;;;9.63;;
9445;SDS011;4761;49.490;10.908;2023-02-08T09:04:23;12.10;;;9.70;;
9445;SDS011;4761;49.490;10.908;2023-02-08T09:06:50;11.73;;;9.40;;
9445;SDS011;4761;49.490;10.908;2023-02-08T09:09:18;12.03;;;9.63;;
9445;SDS011;4761;49.490;10.908;2023-02-08T09:11:44;11.23;;;9.10;;
9445;SDS011;4761;49.490;10.908;2023-02-08T09:14:10;12.90;;;10.10;;
9445;SDS011;4761;49.490;10.908;2023-02-08T09:16:35;14.10;;;10.37;;
9445;SDS011;4761;49.490;10.908;2023-02-08T09:19:02;10.53;;;9.30;;
9445;SDS011;4761;49.490;10.908;2023-02-08T09:21:29;10.80;;;9.30;;
9445;SDS011;4761;49.490;10.908;2023-02-08T09:23:55;10.97;;;9.73;;
9445;SDS011;4761;49.490;10.908;2023-02-08T09:26:20;10.70;;;8.73;;
9445;SDS011;4761;49.490;10.908;2023-02-08T09:28:47;10.97;;;9.10;;
9445;SDS011;4761;49.490;10.908;2023-02-08T09:33:51;11.03;;;9.00;;
9445;SDS011;4761;49.490;10.908;2023-02-08T09:36:19;12.00;;;9.53;;
9445;SDS011;4761;49.490;10.908;2023-02-08T09:38:45;10.77;;;8.80;;
9445;SDS011;4761;49.490;10.908;2023-02-08T09:44:08;12.87;;;9.40;;
9445;SDS011;4761;49.490;10.908;2023-02-08T09:49:51;12.50;;;8.80;;
9445;SDS011;4761;49.490;10.908;2023-02-08T09:52:53;11.10;;;9.10;;
9445;SDS011;4761;49.490;10.908;2023-02-08T09:58:15;9.73;;;8.37;;
9445;SDS011;4761;49.490;10.908;2023-02-08T10:00:46;9.57;;;8.20;;
9445;SDS011;4761;49.490;10.908;2023-02-08T10:03:22;11.83;;;8.87;;
9445;SDS011;4761;49.490;10.908;2023-02-08T10:05:58;10.30;;;8.50;;
9445;SDS011;4761;49.490;10.908;2023-02-08T10:08:25;10.50;;;8.67;;
9445;SDS011;4761;49.490;10.908;2023-02-08T10:10:53;10.63;;;8.70;;
9445;SDS011;4761;49.490;10.908;2023-02-08T10:16:11;9.63;;;8.40;;
9445;SDS011;4761;49.490;10.908;2023-02-08T10:19:41;11.67;;;8.67;;
9445;SDS011;4761;49.490;10.908;2023-02-08T10:30:48;9.17;;;8.03;;
9445;SDS011;4761;49.490;10.908;2023-02-08T10:33:37;9.90;;;8.57;;
9445;SDS011;4761;49.490;10.908;2023-02-08T10:36:24;10.37;;;8.47;;
9445;SDS011;4761;49.490;10.908;2023-02-08T10:38:53;10.43;;;7.83;;
9445;SDS011;4761;49.490;10.908;2023-02-08T10:41:28;10.37;;;8.47;;
9445;SDS011;4761;49.490;10.908;2023-02-08T10:48:59;9.10;;;7.93;;
9445;SDS011;4761;49.490;10.908;2023-02-08T10:51:46;9.07;;;7.93;;
9445;SDS011;4761;49.490;10.908;2023-02-08T10:54:12;9.50;;;8.00;;
9445;SDS011;4761;49.490;10.908;2023-02-08T10:56:53;8.80;;;7.53;;
9445;SDS011;4761;49.490;10.908;2023-02-08T10:59:26;9.10;;;8.07;;
9445;SDS011;4761;49.490;10.908;2023-02-08T11:02:20;10.23;;;7.73;;
9445;SDS011;4761;49.490;10.908;2023-02-08T11:04:56;9.43;;;7.80;;
9445;SDS011;4761;49.490;10.908;2023-02-08T11:07:21;11.30;;;8.40;;
9445;SDS011;4761;49.490;10.908;2023-02-08T11:09:47;9.07;;;7.80;;
9445;SDS011;4761;49.490;10.908;2023-02-08T11:12:16;9.33;;;8.33;;
9445;SDS011;4761;49.490;10.908;2023-02-08T11:14:47;8.60;;;7.30;;
9445;SDS011;4761;49.490;10.908;2023-02-08T11:20:18;8.57;;;7.50;;
9445;SDS011;4761;49.490;10.908;2023-02-08T11:22:57;9.33;;;7.53;;
9445;SDS011;4761;49.490;10.908;2023-02-08T11:25:31;8.43;;;7.53;;
9445;SDS011;4761;49.490;10.908;2023-02-08T11:27:59;8.03;;;6.90;;
9445;SDS011;4761;49.490;10.908;2023-02-08T11:30:25;7.17;;;6.47;;
9445;SDS011;4761;49.490;10.908;2023-02-08T11:35:42;9.43;;;7.63;;
9445;SDS011;4761;49.490;10.908;2023-02-08T11:38:18;7.47;;;6.67;;
9445;SDS011;4761;49.490;10.908;2023-02-08T11:40:46;9.70;;;6.73;;
9445;SDS011;4761;49.490;10.908;2023-02-08T11:43:19;8.27;;;7.37;;
9445;SDS011;4761;49.490;10.908;2023-02-08T11:45:54;7.93;;;6.67;;
9445;SDS011;4761;49.490;10.908;2023-02-08T11:48:25;7.93;;;6.27;;
9445;SDS011;4761;49.490;10.908;2023-02-08T11:50:57;8.17;;;6.77;;
9445;SDS011;4761;49.490;10.908;2023-02-08T11:53:45;8.47;;;6.37;;
9445;SDS011;4761;49.490;10.908;2023-02-08T11:56:16;7.80;;;6.63;;
9445;SDS011;4761;49.490;10.908;2023-02-08T11:58:57;8.17;;;6.67;;
9445;SDS011;4761;49.490;10.908;2023-02-08T12:01:46;7.83;;;6.90;;
9445;SDS011;4761;49.490;10.908;2023-02-08T12:04:13;9.20;;;7.03;;
9445;SDS011;4761;49.490;10.908;2023-02-08T12:07:00;7.03;;;6.30;;
9445;SDS011;4761;49.490;10.908;2023-02-08T12:12:57;6.30;;;5.63;;
9445;SDS011;4761;49.490;10.908;2023-02-08T12:15:51;7.70;;;6.63;;
9445;SDS011;4761;49.490;10.908;2023-02-08T12:21:21;6.33;;;5.70;;
9445;SDS011;4761;49.490;10.908;2023-02-08T12:23:52;7.40;;;6.10;;
9445;SDS011;4761;49.490;10.908;2023-02-08T12:37:51;7.93;;;6.10;;
9445;SDS011;4761;49.490;10.908;2023-02-08T12:46:32;7.00;;;6.30;;
9445;SDS011;4761;49.490;10.908;2023-02-08T12:52:22;6.17;;;5.57;;
9445;SDS011;4761;49.490;10.908;2023-02-08T12:55:02;6.83;;;5.70;;
9445;SDS011;4761;49.490;10.908;2023-02-08T12:57:37;6.57;;;5.73;;
9445;SDS011;4761;49.490;10.908;2023-02-08T13:00:14;6.63;;;5.60;;
9445;SDS011;4761;49.490;10.908;2023-02-08T13:05:21;6.37;;;5.50;;
9445;SDS011;4761;49.490;10.908;2023-02-08T13:07:53;6.30;;;5.33;;
9445;SDS011;4761;49.490;10.908;2023-02-08T13:10:40;8.63;;;5.60;;
9445;SDS011;4761;49.490;10.908;2023-02-08T13:13:18;7.63;;;5.40;;
9445;SDS011;4761;49.490;10.908;2023-02-08T13:15:55;6.43;;;5.40;;
9445;SDS011;4761;49.490;10.908;2023-02-08T13:18:28;5.80;;;5.20;;
9445;SDS011;4761;49.490;10.908;2023-02-08T13:20:59;6.47;;;5.37;;
9445;SDS011;4761;49.490;10.908;2023-02-08T13:23:35;7.40;;;5.80;;
9445;SDS011;4761;49.490;10.908;2023-02-08T13:26:07;7.73;;;6.20;;
9445;SDS011;4761;49.490;10.908;2023-02-08T13:28:39;6.27;;;5.20;;
9445;SDS011;4761;49.490;10.908;2023-02-08T13:31:14;7.63;;;6.03;;
9445;SDS011;4761;49.490;10.908;2023-02-08T13:33:48;6.40;;;5.70;;
9445;SDS011;4761;49.490;10.908;2023-02-08T13:36:24;6.77;;;5.33;;
9445;SDS011;4761;49.490;10.908;2023-02-08T13:38:55;5.90;;;5.30;;
9445;SDS011;4761;49.490;10.908;2023-02-08T13:41:24;6.93;;;5.83;;
9445;SDS011;4761;49.490;10.908;2023-02-08T13:43:53;5.97;;;5.33;;
9445;SDS011;4761;49.490;10.908;2023-02-08T13:46:21;6.23;;;5.43;;
9445;SDS011;4761;49.490;10.908;2023-02-08T13:48:50;6.20;;;5.37;;
9445;SDS011;4761;49.490;10.908;2023-02-08T13:52:03;6.20;;;5.50;;
9445;SDS011;4761;49.490;10.908;2023-02-08T13:54:16;5.90;;;5.30;;
9445;SDS011;4761;49.490;10.908;2023-02-08T13:56:43;7.10;;;5.70;;
9445;SDS011;4761;49.490;10.908;2023-02-08T13:59:23;6.60;;;5.60;;
9445;SDS011;4761;49.490;10.908;2023-02-08T14:02:23;5.90;;;5.30;;
9445;SDS011;4761;49.490;10.908;2023-02-08T14:04:52;6.43;;;5.67;;
9445;SDS011;4761;49.490;10.908;2023-02-08T14:07:44;7.33;;;5.37;;
9445;SDS011;4761;49.490;10.908;2023-02-08T14:15:31;6.50;;;5.60;;
9445;SDS011;4761;49.490;10.908;2023-02-08T14:17:58;7.20;;;5.90;;
9445;SDS011;4761;49.490;10.908;2023-02-08T14:20:27;6.90;;;5.43;;
9445;SDS011;4761;49.490;10.908;2023-02-08T14:23:00;6.40;;;5.10;;
9445;SDS011;4761;49.490;10.908;2023-02-08T14:25:29;5.80;;;5.20;;
9445;SDS011;4761;49.490;10.908;2023-02-08T14:28:04;6.00;;;5.40;;
9445;SDS011;4761;49.490;10.908;2023-02-08T14:30:33;6.87;;;5.27;;
9445;SDS011;4761;49.490;10.908;2023-02-08T14:35:31;7.40;;;5.67;;
9445;SDS011;4761;49.490;10.908;2023-02-08T14:40:51;6.37;;;5.50;;
9445;SDS011;4761;49.490;10.908;2023-02-08T14:43:34;6.70;;;5.70;;
9445;SDS011;4761;49.490;10.908;2023-02-08T14:49:04;6.90;;;5.80;;
9445;SDS011;4761;49.490;10.908;2023-02-08T14:51:40;6.47;;;5.57;;
9445;SDS011;4761;49.490;10.908;2023-02-08T14:54:54;8.67;;;5.77;;
9445;SDS011;4761;49.490;10.908;2023-02-08T14:57:03;6.70;;;5.93;;
9445;SDS011;4761;49.490;10.908;2023-02-08T14:59:32;7.17;;;5.60;;
9445;SDS011;4761;49.490;10.908;2023-02-08T15:02:00;6.13;;;5.53;;
9445;SDS011;4761;49.490;10.908;2023-02-08T15:04:28;6.93;;;6.20;;
9445;SDS011;4761;49.490;10.908;2023-02-08T15:09:42;6.43;;;5.70;;
9445;SDS011;4761;49.490;10.908;2023-02-08T15:12:23;6.50;;;5.60;;
9445;SDS011;4761;49.490;10.908;2023-02-08T15:14:53;6.10;;;5.43;;
9445;SDS011;4761;49.490;10.908;2023-02-08T15:19:54;6.57;;;5.83;;
9445;SDS011;4761;49.490;10.908;2023-02-08T15:24:54;7.77;;;5.87;;
9445;SDS011;4761;49.490;10.908;2023-02-08T15:27:44;6.60;;;5.90;;
9445;SDS011;4761;49.490;10.908;2023-02-08T15:33:02;7.60;;;5.90;;
9445;SDS011;4761;49.490;10.908;2023-02-08T15:35:33;7.07;;;6.03;;
9445;SDS011;4761;49.490;10.908;2023-02-08T15:37:59;6.47;;;5.60;;
9445;SDS011;4761;49.490;10.908;2023-02-08T15:40:33;7.53;;;6.10;;
9445;SDS011;4761;49.490;10.908;2023-02-08T15:43:07;7.10;;;6.27;;
9445;SDS011;4761;49.490;10.908;2023-02-08T15:45:36;6.53;;;5.73;;
9445;SDS011;4761;49.490;10.908;2023-02-08T15:48:02;7.50;;;6.33;;
9445;SDS011;4761;49.490;10.908;2023-02-08T15:50:30;7.73;;;6.30;;
9445;SDS011;4761;49.490;10.908;2023-02-08T15:52:58;7.03;;;6.33;;
9445;SDS011;4761;49.490;10.908;2023-02-08T15:55:27;6.73;;;6.07;;
9445;SDS011;4761;49.490;10.908;2023-02-08T15:57:58;6.63;;;5.87;;
9445;SDS011;4761;49.490;10.908;2023-02-08T16:00:32;7.97;;;6.17;;
9445;SDS011;4761;49.490;10.908;2023-02-08T16:03:01;6.27;;;5.67;;
9445;SDS011;4761;49.490;10.908;2023-02-08T16:05:32;8.70;;;6.90;;
9445;SDS011;4761;49.490;10.908;2023-02-08T16:08:00;8.80;;;6.37;;
9445;SDS011;4761;49.490;10.908;2023-02-08T16:10:31;8.40;;;6.40;;
9445;SDS011;4761;49.490;10.908;2023-02-08T16:13:15;7.67;;;6.03;;
9445;SDS011;4761;49.490;10.908;2023-02-08T16:15:46;6.60;;;5.90;;
9445;SDS011;4761;49.490;10.908;2023-02-08T16:21:18;7.87;;;6.30;;
9445;SDS011;4761;49.490;10.908;2023-02-08T16:23:58;7.47;;;5.87;;
9445;SDS011;4761;49.490;10.908;2023-02-08T16:26:30;8.17;;;6.53;;
9445;SDS011;4761;49.490;10.908;2023-02-08T16:31:27;8.03;;;6.63;;
9445;SDS011;4761;49.490;10.908;2023-02-08T16:34:02;8.03;;;6.60;;
9445;SDS011;4761;49.490;10.908;2023-02-08T16:36:38;8.50;;;6.93;;
9445;SDS011;4761;49.490;10.908;2023-02-08T16:39:52;7.63;;;6.30;;
9445;SDS011;4761;49.490;10.908;2023-02-08T16:42:24;7.57;;;6.30;;
9445;SDS011;4761;49.490;10.908;2023-02-08T16:47:46;9.03;;;6.90;;
9445;SDS011;4761;49.490;10.908;2023-02-08T16:50:15;7.53;;;6.30;;
9445;SDS011;4761;49.490;10.908;2023-02-08T16:52:53;7.33;;;6.60;;
9445;SDS011;4761;49.490;10.908;2023-02-08T16:55:21;7.43;;;6.63;;
9445;SDS011;4761;49.490;10.908;2023-02-08T16:57:49;7.73;;;6.53;;
9445;SDS011;4761;49.490;10.908;2023-02-08T17:00:20;7.97;;;6.57;;
9445;SDS011;4761;49.490;10.908;2023-02-08T17:02:52;8.20;;;6.90;;
9445;SDS011;4761;49.490;10.908;2023-02-08T17:05:19;8.03;;;6.47;;
9445;SDS011;4761;49.490;10.908;2023-02-08T17:07:46;7.63;;;6.83;;
9445;SDS011;4761;49.490;10.908;2023-02-08T17:10:23;8.23;;;6.47;;
9445;SDS011;4761;49.490;10.908;2023-02-08T17:12:53;7.67;;;6.40;;
9445;SDS011;4761;49.490;10.908;2023-02-08T17:15:18;7.30;;;6.47;;
9445;SDS011;4761;49.490;10.908;2023-02-08T17:17:45;8.33;;;7.40;;